Verdon, South Dakota
Current Conditions -  °F | °C
As of 1:53 AM on Sunday 23 Nov 2014 (Local Time) from KABR Reporting Station
Clear Clear  
Wind Chill: 29°   Ceiling: Unl
Heat Index: 35°   Visibility: 10mi
Dew Point: 32°   Wind: 7mph
Humidity: 89%   Direction: 260°W
Pressure: 29.42"   Gusts: NA
Location:  45.1644°N, 98.0134°W
Report Text: KABR 230753Z AUTO 26006KT 10SM CLR 02/00 A2942 RMK AO2 SLP974 T00170000
Loading
Personal Weather Stations






























Interactive Weather Map New forecast layout! Learn more

10-Day Weather Forecast

Advertisements
Track Severe Weather on mobile